createdAt,value
2018-12-02T00:00:20.402Z,15.13
2018-12-02T00:03:23.698Z,21.27
2018-12-02T00:06:26.993Z,12.40
2018-12-02T00:09:30.204Z,12.33
2018-12-02T00:12:34.489Z,9.83
2018-12-02T00:15:39.041Z,13.73
2018-12-02T00:18:42.214Z,11.43
2018-12-02T00:21:45.601Z,80.60
2018-12-02T00:24:48.776Z,180.03
2018-12-02T00:27:55.186Z,151.57
2018-12-02T00:30:58.261Z,136.63
2018-12-02T00:34:01.349Z,120.00
2018-12-02T00:37:04.723Z,109.23
2018-12-02T00:40:09.646Z,98.80
2018-12-02T00:43:12.721Z,83.93
2018-12-02T00:46:16.045Z,79.97
2018-12-02T00:49:19.612Z,69.03
2018-12-02T00:52:22.754Z,67.47
2018-12-02T00:55:31.166Z,66.27
2018-12-02T00:58:35.640Z,65.40
2018-12-02T01:01:38.818Z,60.97
2018-12-02T01:04:42.178Z,58.27
2018-12-02T01:07:45.270Z,57.60
2018-12-02T01:10:48.526Z,52.60
2018-12-02T01:13:51.558Z,50.57
2018-12-02T01:16:54.902Z,49.70
2018-12-02T01:19:58.018Z,46.77
2018-12-02T01:23:01.313Z,46.77
2018-12-02T01:26:04.691Z,44.13
2018-12-02T01:29:07.893Z,43.23
2018-12-02T01:32:11.066Z,42.73
2018-12-02T01:35:15.007Z,39.17
2018-12-02T01:38:18.082Z,36.47
2018-12-02T01:41:21.210Z,33.83
2018-12-02T01:44:24.359Z,32.87
2018-12-02T01:47:27.554Z,33.67
2018-12-02T01:50:30.722Z,31.67
2018-12-02T01:53:33.777Z,29.13
2018-12-02T01:56:36.832Z,31.80
2018-12-02T01:59:39.892Z,30.30
2018-12-02T02:02:42.998Z,31.83
2018-12-02T02:05:46.074Z,25.37
2018-12-02T02:08:49.281Z,25.13
2018-12-02T02:11:52.470Z,27.37
2018-12-02T02:14:55.537Z,26.73
2018-12-02T02:17:58.706Z,26.33
2018-12-02T02:21:02.095Z,22.27
2018-12-02T02:24:05.579Z,23.63
2018-12-02T02:27:08.649Z,20.57
2018-12-02T02:30:15.778Z,20.62
2018-12-02T02:33:18.893Z,20.33
2018-12-02T02:36:22.055Z,18.50
2018-12-02T02:39:25.209Z,18.43
2018-12-02T02:42:28.272Z,18.70
2018-12-02T02:45:31.315Z,17.93
2018-12-02T02:48:34.415Z,17.47
2018-12-02T02:51:37.478Z,18.73
2018-12-02T02:54:40.630Z,14.80
2018-12-02T02:57:43.769Z,16.17
2018-12-02T03:00:46.851Z,16.15
2018-12-02T03:03:49.906Z,14.27
2018-12-02T03:06:52.985Z,13.97
2018-12-02T03:09:56.058Z,12.93
2018-12-02T03:12:59.155Z,13.90
2018-12-02T03:16:02.194Z,12.23
2018-12-02T03:19:05.546Z,11.70
2018-12-02T03:22:08.600Z,14.30
2018-12-02T03:25:12.945Z,12.70
2018-12-02T03:28:16.018Z,11.77
2018-12-02T03:31:19.117Z,11.97
2018-12-02T03:34:22.157Z,10.43
2018-12-02T03:37:25.378Z,10.17
2018-12-02T03:40:28.866Z,9.70
2018-12-02T03:43:31.970Z,9.70
2018-12-02T03:46:35.018Z,10.23
2018-12-02T03:49:38.070Z,8.67
2018-12-02T03:52:41.205Z,12.13
2018-12-02T03:55:44.275Z,8.57
2018-12-02T03:58:47.453Z,8.17
2018-12-02T04:01:50.482Z,9.97
2018-12-02T04:04:53.543Z,8.87
2018-12-02T04:07:56.642Z,8.30
2018-12-02T04:10:59.697Z,6.13
2018-12-02T04:14:02.966Z,7.28
2018-12-02T04:17:06.427Z,9.23
2018-12-02T04:20:11.466Z,6.27
2018-12-02T04:23:14.574Z,6.13
2018-12-02T04:26:17.659Z,6.80
2018-12-02T04:29:20.817Z,7.97
2018-12-02T04:32:23.869Z,6.83
2018-12-02T04:35:27.057Z,6.10
2018-12-02T04:38:30.142Z,7.93
2018-12-02T04:41:33.222Z,5.80
2018-12-02T04:44:36.285Z,8.70
2018-12-02T04:47:39.339Z,5.63
2018-12-02T04:50:42.387Z,4.43
2018-12-02T04:53:45.538Z,6.13
2018-12-02T04:56:48.676Z,8.13
2018-12-02T04:59:51.723Z,6.77
2018-12-02T05:02:55.902Z,4.28
2018-12-02T05:05:59.064Z,7.50
2018-12-02T05:09:02.286Z,11.03
2018-12-02T05:12:05.946Z,7.13
2018-12-02T05:15:10.537Z,6.10
2018-12-02T05:18:13.574Z,4.83
2018-12-02T05:21:16.665Z,5.47
2018-12-02T05:24:19.732Z,6.17
2018-12-02T05:27:22.812Z,9.90
2018-12-02T05:30:25.894Z,7.13
2018-12-02T05:33:28.941Z,7.07
2018-12-02T05:36:32.046Z,4.80
2018-12-02T05:39:35.122Z,4.37
2018-12-02T05:42:38.195Z,6.03
2018-12-02T05:45:41.255Z,4.73
2018-12-02T05:48:44.331Z,3.37
2018-12-02T05:51:47.406Z,3.00
2018-12-02T05:54:50.484Z,3.37
2018-12-02T05:57:53.554Z,2.80
2018-12-02T06:00:56.644Z,4.23
2018-12-02T06:03:59.723Z,3.90
2018-12-02T06:07:02.865Z,4.10
2018-12-02T06:10:08.409Z,6.23
2018-12-02T06:13:11.485Z,3.30
2018-12-02T06:16:14.542Z,3.40
2018-12-02T06:19:17.635Z,3.67
2018-12-02T06:22:20.742Z,2.53
2018-12-02T06:25:24.840Z,3.07
2018-12-02T06:28:27.974Z,2.47
2018-12-02T06:31:32.028Z,2.67
2018-12-02T06:34:34.162Z,2.43
2018-12-02T06:37:37.455Z,3.93
2018-12-02T06:40:40.511Z,3.60
2018-12-02T06:43:43.725Z,2.80
2018-12-02T06:46:47.692Z,2.20
2018-12-02T06:49:50.846Z,2.20
2018-12-02T06:52:54.506Z,2.47
2018-12-02T06:56:00.178Z,2.17
2018-12-02T06:59:40.670Z,2.63
2018-12-02T07:02:47.033Z,4.63
2018-12-02T07:05:50.146Z,7.80
2018-12-02T07:08:53.418Z,2.40
2018-12-02T07:11:56.467Z,10.70
2018-12-02T07:14:59.546Z,90.23
2018-12-02T07:18:02.646Z,73.23
2018-12-02T07:21:07.653Z,66.60
2018-12-02T07:24:11.454Z,59.00
2018-12-02T07:27:14.655Z,59.10
2018-12-02T07:30:17.706Z,60.00
2018-12-02T07:33:20.787Z,51.20
2018-12-02T07:36:23.849Z,48.77
2018-12-02T07:40:38.235Z,48.53
2018-12-02T07:43:41.321Z,43.73
2018-12-02T07:46:44.393Z,43.60
2018-12-02T07:49:47.485Z,41.83
2018-12-02T07:52:50.582Z,40.13
2018-12-02T07:55:53.839Z,38.23
2018-12-02T07:58:56.923Z,36.80
2018-12-02T08:02:00.009Z,38.27
2018-12-02T08:05:03.067Z,34.63
2018-12-02T08:08:06.350Z,34.30
2018-12-02T08:11:09.420Z,34.77
2018-12-02T08:14:12.605Z,31.83
2018-12-02T08:17:15.779Z,29.50
2018-12-02T08:20:18.984Z,27.30
2018-12-02T08:23:22.139Z,28.37
2018-12-02T08:26:26.272Z,28.90
2018-12-02T08:29:29.350Z,26.27
2018-12-02T08:32:32.430Z,25.93
2018-12-02T08:35:35.612Z,27.53
2018-12-02T08:38:38.755Z,26.93
2018-12-02T08:41:41.886Z,23.80
2018-12-02T08:44:45.982Z,22.93
2018-12-02T08:47:49.086Z,20.83
2018-12-02T08:50:52.274Z,23.00
2018-12-02T08:53:55.386Z,20.47
2018-12-02T08:56:58.452Z,21.43
2018-12-02T09:00:01.531Z,18.53
2018-12-02T09:03:07.005Z,17.47
2018-12-02T09:06:10.187Z,17.00
2018-12-02T09:09:13.348Z,16.40
2018-12-02T09:12:16.524Z,16.03
2018-12-02T09:15:19.638Z,18.93
2018-12-02T09:18:22.834Z,13.40
2018-12-02T09:21:25.993Z,14.63
2018-12-02T09:24:29.250Z,17.33
2018-12-02T09:27:32.483Z,15.00
2018-12-02T09:30:36.820Z,14.83
2018-12-02T09:33:40.046Z,14.50
2018-12-02T09:36:43.209Z,14.70
2018-12-02T09:39:46.382Z,14.87
2018-12-02T09:42:51.690Z,12.57
2018-12-02T09:45:54.954Z,12.03
2018-12-02T09:48:58.183Z,13.03
2018-12-02T09:52:02.359Z,56.23
2018-12-02T09:55:08.822Z,106.83
2018-12-02T09:58:15.626Z,85.60
2018-12-02T10:01:18.850Z,80.80
2018-12-02T10:04:22.007Z,71.50
2018-12-02T10:07:25.170Z,67.43
2018-12-02T10:10:28.290Z,61.50
2018-12-02T10:13:31.437Z,60.90
2018-12-02T10:16:34.662Z,50.17
2018-12-02T10:19:37.766Z,46.37
2018-12-02T10:22:40.831Z,43.37
2018-12-02T10:25:43.981Z,40.57
2018-12-02T10:28:47.154Z,39.27
2018-12-02T10:31:50.314Z,37.40
2018-12-02T10:34:53.470Z,34.40
2018-12-02T10:37:56.674Z,31.50
2018-12-02T10:40:59.825Z,31.90
2018-12-02T10:44:03.041Z,29.40
2018-12-02T10:47:06.595Z,26.50
2018-12-02T10:50:12.985Z,23.93
2018-12-02T10:53:18.743Z,25.27
2018-12-02T10:56:21.862Z,20.20
2018-12-02T10:59:24.889Z,36.83
2018-12-02T11:02:27.982Z,20.47
2018-12-02T11:05:31.085Z,37.33
2018-12-02T11:08:34.191Z,15.93
2018-12-02T11:11:37.346Z,6.40
2018-12-02T11:14:40.490Z,4.67
2018-12-02T11:17:44.486Z,6.10
2018-12-02T11:20:47.596Z,5.35
2018-12-02T11:24:13.109Z,3.40
2018-12-02T11:27:16.255Z,8.60
2018-12-02T11:30:19.402Z,5.93
2018-12-02T11:33:22.547Z,8.97
2018-12-02T11:36:25.615Z,6.10
2018-12-02T11:39:28.733Z,5.10
2018-12-02T11:42:31.890Z,3.03
2018-12-02T11:45:38.606Z,6.17
2018-12-02T11:48:41.773Z,6.83
2018-12-02T11:51:44.954Z,6.53
2018-12-02T11:54:48.074Z,3.53
2018-12-02T11:57:51.338Z,3.80
2018-12-02T12:00:54.379Z,6.93
2018-12-02T12:03:58.785Z,5.20
2018-12-02T12:07:01.845Z,4.47
2018-12-02T12:10:07.318Z,3.07
2018-12-02T12:13:11.198Z,8.77
2018-12-02T12:16:14.314Z,24.67
2018-12-02T12:19:17.410Z,2.90
2018-12-02T12:22:20.477Z,18.97
2018-12-02T12:25:23.714Z,7.22
2018-12-02T12:28:27.456Z,4.50
2018-12-02T12:31:30.614Z,4.50
2018-12-02T12:34:33.687Z,4.90
2018-12-02T12:37:36.829Z,3.33
2018-12-02T12:40:40.474Z,2.23
2018-12-02T12:43:44.730Z,3.83
2018-12-02T12:46:47.834Z,6.03
2018-12-02T12:49:50.945Z,3.10
2018-12-02T12:52:54.106Z,3.37
2018-12-02T12:55:57.274Z,2.33
2018-12-02T12:59:00.424Z,2.33
2018-12-02T13:02:04.519Z,2.80
2018-12-02T13:05:09.425Z,5.30
2018-12-02T13:08:13.862Z,2.57
2018-12-02T13:11:17.757Z,1.93
2018-12-02T13:14:22.302Z,2.27
2018-12-02T13:17:25.550Z,3.27
2018-12-02T13:20:33.317Z,3.27
2018-12-02T13:23:37.451Z,3.10
2018-12-02T13:26:41.978Z,3.50
2018-12-02T13:29:46.358Z,4.40
2018-12-02T13:32:50.619Z,2.00
2018-12-02T13:35:53.707Z,2.20
2018-12-02T13:38:56.816Z,2.83
2018-12-02T13:41:59.950Z,2.47
2018-12-02T13:45:03.919Z,5.07
2018-12-02T13:48:07.101Z,2.87
2018-12-02T13:51:10.266Z,2.93
2018-12-02T13:54:18.798Z,4.67
2018-12-02T13:57:22.100Z,1.70
2018-12-02T14:00:26.146Z,3.63
2018-12-02T14:03:29.292Z,4.10
2018-12-02T14:06:32.446Z,3.17
2018-12-02T14:09:35.620Z,3.23
2018-12-02T14:12:39.261Z,2.03
2018-12-02T14:15:47.749Z,2.83
2018-12-02T14:18:51.577Z,2.60
2018-12-02T14:21:54.658Z,2.67
2018-12-02T14:25:02.627Z,3.70
2018-12-02T14:28:00.934Z,1.63
2018-12-02T14:31:04.569Z,1.70
2018-12-02T14:34:07.765Z,2.95
2018-12-02T14:37:10.874Z,3.30
2018-12-02T14:40:20.592Z,2.47
2018-12-02T14:43:23.976Z,2.57
2018-12-02T14:46:28.207Z,4.37
2018-12-02T14:49:34.160Z,1.63
2018-12-02T14:52:37.606Z,1.40
2018-12-02T14:55:40.766Z,1.37
2018-12-02T14:58:43.838Z,1.33
2018-12-02T15:01:46.898Z,4.60
2018-12-02T15:04:49.974Z,1.97
2018-12-02T15:07:53.053Z,2.07
2018-12-02T15:10:57.282Z,2.00
2018-12-02T15:14:00.587Z,2.13
2018-12-02T15:17:03.630Z,1.70
2018-12-02T15:20:13.425Z,1.60
2018-12-02T15:23:16.510Z,2.00
2018-12-02T15:26:19.561Z,1.43
2018-12-02T15:29:23.128Z,1.73
2018-12-02T15:32:29.445Z,1.37
2018-12-02T15:35:32.645Z,1.00
2018-12-02T15:38:35.755Z,1.17
2018-12-02T15:41:38.974Z,1.63
2018-12-02T15:44:43.467Z,1.00
2018-12-02T15:47:46.681Z,1.63
2018-12-02T15:50:50.551Z,0.93
2018-12-02T15:53:53.411Z,1.17
2018-12-02T15:56:56.497Z,1.33
2018-12-02T15:59:59.614Z,1.17
2018-12-02T16:03:02.791Z,1.40
2018-12-02T16:06:06.033Z,1.57
2018-12-02T16:09:09.902Z,1.10
2018-12-02T16:12:12.991Z,1.70
2018-12-02T16:15:19.225Z,1.93
2018-12-02T16:18:22.352Z,2.13
2018-12-02T16:21:25.550Z,1.87
2018-12-02T16:24:28.660Z,1.80
2018-12-02T16:27:31.926Z,1.00
2018-12-02T16:30:35.037Z,1.43
2018-12-02T16:33:38.129Z,1.00
2018-12-02T16:36:41.269Z,1.47
2018-12-02T16:39:44.306Z,1.80
2018-12-02T16:42:48.545Z,1.47
2018-12-02T16:45:53.332Z,1.20
2018-12-02T16:48:56.450Z,1.20
2018-12-02T16:51:59.610Z,2.60
2018-12-02T16:55:02.670Z,2.17
2018-12-02T16:58:11.310Z,1.20
2018-12-02T17:01:16.657Z,1.43
2018-12-02T17:04:20.283Z,1.60
2018-12-02T17:07:23.417Z,1.23
2018-12-02T17:10:26.557Z,1.20
2018-12-02T17:13:29.926Z,3.13
2018-12-02T17:16:33.030Z,1.73
2018-12-02T17:19:36.190Z,1.77
2018-12-02T17:22:39.325Z,3.07
2018-12-02T17:25:42.435Z,1.23
2018-12-02T17:28:45.509Z,5.27
2018-12-02T17:32:24.704Z,1.67
2018-12-02T17:35:27.841Z,1.30
2018-12-02T17:38:30.970Z,2.17
2018-12-02T17:41:34.032Z,1.50
2018-12-02T17:44:37.089Z,1.50
2018-12-02T17:47:40.173Z,3.13
2018-12-02T17:50:43.396Z,2.17
2018-12-02T17:53:46.550Z,3.77
2018-12-02T17:56:49.698Z,1.97
2018-12-02T17:59:53.125Z,3.33
2018-12-02T18:02:58.409Z,3.02
2018-12-02T18:06:01.521Z,1.63
2018-12-02T18:09:08.852Z,1.53
2018-12-02T18:12:11.925Z,2.13
2018-12-02T18:15:16.569Z,3.30
2018-12-02T18:18:19.663Z,1.77
2018-12-02T18:21:22.835Z,2.20
2018-12-02T18:24:25.974Z,2.37
2018-12-02T18:27:29.072Z,2.50
2018-12-02T18:30:32.162Z,1.20
2018-12-02T18:33:35.240Z,2.13
2018-12-02T18:36:39.210Z,1.43
2018-12-02T18:39:42.369Z,2.00
2018-12-02T18:42:45.581Z,2.50
2018-12-02T18:45:51.659Z,2.10
2018-12-02T18:48:54.790Z,2.03
2018-12-02T18:51:57.834Z,2.80
2018-12-02T18:55:00.938Z,2.23
2018-12-02T18:58:04.166Z,2.83
2018-12-02T19:01:07.318Z,3.50
2018-12-02T19:04:10.628Z,1.80
2018-12-02T19:07:13.772Z,2.87
2018-12-02T19:10:21.639Z,2.70
2018-12-02T19:13:24.847Z,2.53
2018-12-02T19:16:28.008Z,2.53
2018-12-02T19:19:31.149Z,3.00
2018-12-02T19:22:34.315Z,3.83
2018-12-02T19:25:39.053Z,14.53
2018-12-02T19:28:42.239Z,4.93
2018-12-02T19:31:45.420Z,3.90
2018-12-02T19:34:49.322Z,4.50
2018-12-02T19:37:54.165Z,3.63
2018-12-02T19:40:57.325Z,4.63
2018-12-02T19:44:00.496Z,5.13
2018-12-02T19:47:03.706Z,4.97
2018-12-02T19:50:10.772Z,4.67
2018-12-02T19:53:14.037Z,7.47
2018-12-02T19:56:17.229Z,4.93
2018-12-02T19:59:20.446Z,4.97
2018-12-02T20:02:23.706Z,4.47
2018-12-02T20:05:26.887Z,5.23
2018-12-02T20:08:32.118Z,5.63
2018-12-02T20:11:39.225Z,4.67
2018-12-02T20:14:45.304Z,6.07
2018-12-02T20:17:48.859Z,5.13
2018-12-02T20:20:55.070Z,5.20
2018-12-02T20:24:03.623Z,5.17
2018-12-02T20:27:06.825Z,5.73
2018-12-02T20:30:12.768Z,5.30
2018-12-02T20:33:16.940Z,6.80
2018-12-02T20:36:21.086Z,4.97
2018-12-02T20:39:24.294Z,6.03
2018-12-02T20:42:27.378Z,5.37
2018-12-02T20:45:30.561Z,5.30
2018-12-02T20:48:33.626Z,4.53
2018-12-02T20:51:36.791Z,4.73
2018-12-02T20:54:39.917Z,7.07
2018-12-02T20:57:43.192Z,4.87
2018-12-02T21:00:46.301Z,5.47
2018-12-02T21:03:49.986Z,6.60
2018-12-02T21:06:53.070Z,9.03
2018-12-02T21:09:56.235Z,7.80
2018-12-02T21:12:59.460Z,4.97
2018-12-02T21:16:02.669Z,4.53
2018-12-02T21:19:05.822Z,4.70
2018-12-02T21:22:08.873Z,5.00
2018-12-02T21:25:14.660Z,4.53
2018-12-02T21:28:19.061Z,7.30
2018-12-02T21:31:22.215Z,7.07
2018-12-02T21:34:26.395Z,5.77
2018-12-02T21:37:29.651Z,5.93
2018-12-02T21:40:32.936Z,8.07
2018-12-02T21:43:36.110Z,5.43
2018-12-02T21:46:39.245Z,5.53
2018-12-02T21:49:42.334Z,6.13
2018-12-02T21:52:45.530Z,4.97
2018-12-02T21:55:48.549Z,4.37
2018-12-02T21:58:51.653Z,5.10
2018-12-02T22:01:54.703Z,5.57
2018-12-02T22:04:57.783Z,4.63
2018-12-02T22:08:00.894Z,4.80
2018-12-02T22:11:04.005Z,5.70
2018-12-02T22:14:07.086Z,5.80
2018-12-02T22:17:10.148Z,5.80
2018-12-02T22:20:14.316Z,6.37
2018-12-02T22:23:17.379Z,5.60
2018-12-02T22:26:20.448Z,5.67
2018-12-02T22:29:23.523Z,6.00
2018-12-02T22:32:26.601Z,5.40
2018-12-02T22:35:29.631Z,4.93
2018-12-02T22:38:32.673Z,5.80
2018-12-02T22:41:35.826Z,6.10
2018-12-02T22:44:38.866Z,4.83
2018-12-02T22:47:42.083Z,5.13
2018-12-02T22:50:45.118Z,4.13
2018-12-02T22:53:48.182Z,6.03
2018-12-02T22:56:51.296Z,4.70
2018-12-02T22:59:54.347Z,4.43
2018-12-02T23:03:02.568Z,4.93
2018-12-02T23:06:05.626Z,5.37
2018-12-02T23:09:08.769Z,5.93
2018-12-02T23:12:11.845Z,5.23
2018-12-02T23:15:14.990Z,5.17
2018-12-02T23:18:18.154Z,5.03
2018-12-02T23:21:21.211Z,5.53
2018-12-02T23:24:24.450Z,4.53
2018-12-02T23:27:27.346Z,4.03
2018-12-02T23:30:30.404Z,4.57
2018-12-02T23:33:33.559Z,4.63
2018-12-02T23:36:36.630Z,4.73
2018-12-02T23:39:39.767Z,5.80
2018-12-02T23:42:42.825Z,4.57
2018-12-02T23:45:45.923Z,5.73
2018-12-02T23:48:48.974Z,3.57
2018-12-02T23:51:52.881Z,5.40
2018-12-02T23:54:55.166Z,3.00
2018-12-02T23:57:58.305Z,5.73
